Time;durP1;ratioP1;P1;durP2;ratioP2;P2;SDS_P1;SDS_P2;PMS_P1;PMS_P2;Temp;Humidity;BMP_temperature;BMP_pressure;BME280_temperature;BME280_humidity;BME280_pressure;Samples;Min_cycle;Max_cycle;Signal;HPM_P1;HPM_P2
2023/12/23 00:01:10;;;;;;;6.10;2.97;;;17.30;53.80;;;;;;4970283;28;20034;-65
2023/12/23 00:03:35;;;;;;;5.88;2.83;;;17.40;53.90;;;;;;4969856;28;20410;-65
2023/12/23 00:06:01;;;;;;;6.20;2.72;;;17.40;53.90;;;;;;4955456;28;20097;-60
2023/12/23 00:08:26;;;;;;;5.28;2.55;;;17.30;53.80;;;;;;4969618;28;20031;-66
2023/12/23 00:10:52;;;;;;;5.22;2.60;;;17.40;53.90;;;;;;4968129;28;20035;-66
2023/12/23 00:13:17;;;;;;;6.78;3.17;;;17.30;53.80;;;;;;4966442;28;20027;-67
2023/12/23 00:15:43;;;;;;;5.10;2.20;;;17.40;53.90;;;;;;4968967;28;20026;-65
2023/12/23 00:18:08;;;;;;;5.40;2.42;;;17.40;53.80;;;;;;4970699;28;20089;-65
2023/12/23 00:20:34;;;;;;;5.38;2.85;;;17.30;53.80;;;;;;4969924;28;20493;-68
2023/12/23 00:22:59;;;;;;;4.68;2.47;;;17.30;53.80;;;;;;4970062;28;20050;-65
2023/12/23 00:25:25;;;;;;;6.03;2.55;;;17.30;53.80;;;;;;4970923;28;20022;-66
2023/12/23 00:27:50;;;;;;;3.97;2.30;;;17.30;53.90;;;;;;4970659;28;20086;-66
2023/12/23 00:30:16;;;;;;;3.20;2.08;;;17.30;53.80;;;;;;4969091;28;20027;-66
2023/12/23 00:32:44;;;;;;;3.67;2.35;;;17.30;53.90;;;;;;4968875;28;20023;-66
2023/12/23 00:35:10;;;;;;;5.10;2.45;;;17.30;53.90;;;;;;4969487;28;20050;-65
2023/12/23 00:37:35;;;;;;;5.90;2.22;;;17.30;53.90;;;;;;4968387;28;20033;-65
2023/12/23 00:40:01;;;;;;;3.30;1.98;;;17.30;53.90;;;;;;4968844;28;20094;-66
2023/12/23 00:42:26;;;;;;;3.90;2.25;;;17.20;53.90;;;;;;4968767;28;20058;-67
2023/12/23 00:44:52;;;;;;;4.72;1.90;;;17.20;53.80;;;;;;4969751;28;20030;-65
2023/12/23 00:47:17;;;;;;;5.03;2.10;;;17.30;53.80;;;;;;4969894;28;20486;-65
2023/12/23 00:49:44;;;;;;;3.45;2.05;;;17.20;53.90;;;;;;4967176;28;20030;-64
2023/12/23 00:52:10;;;;;;;3.70;2.05;;;17.30;53.90;;;;;;4969213;28;20035;-65
2023/12/23 00:54:35;;;;;;;3.67;2.25;;;17.20;53.90;;;;;;4969970;28;20092;-65
2023/12/23 00:57:01;;;;;;;3.63;1.98;;;17.20;53.90;;;;;;4967388;28;20031;-65
2023/12/23 00:59:26;;;;;;;3.97;1.95;;;17.20;53.90;;;;;;4969076;28;20818;-65
2023/12/23 01:01:52;;;;;;;3.42;2.08;;;17.20;53.90;;;;;;4967599;28;20118;-66
2023/12/23 01:04:17;;;;;;;3.95;1.77;;;17.20;54.00;;;;;;4968712;28;20088;-65
2023/12/23 01:06:43;;;;;;;3.53;1.50;;;17.20;53.90;;;;;;4969262;28;20617;-60
2023/12/23 01:09:08;;;;;;;2.92;1.77;;;17.20;54.00;;;;;;4967605;28;20027;-62
2023/12/23 01:11:33;;;;;;;3.33;1.88;;;17.20;54.00;;;;;;4968642;28;20659;-64
2023/12/23 01:13:59;;;;;;;2.85;1.90;;;17.20;54.00;;;;;;4963279;28;20035;-64
2023/12/23 01:16:24;;;;;;;3.45;1.65;;;17.20;54.00;;;;;;4969429;28;20042;-55
2023/12/23 01:18:50;;;;;;;3.28;1.70;;;17.20;54.00;;;;;;4967646;28;20034;-64
2023/12/23 01:21:18;;;;;;;3.42;1.77;;;17.20;54.00;;;;;;4968600;28;20031;-64
2023/12/23 01:23:43;;;;;;;4.00;1.73;;;17.10;53.90;;;;;;4967759;28;20494;-64
2023/12/23 01:26:09;;;;;;;3.78;1.83;;;17.20;54.00;;;;;;4969175;28;20026;-64
2023/12/23 01:28:34;;;;;;;3.25;1.20;;;17.20;54.00;;;;;;4967451;28;20446;-64
2023/12/23 01:31:00;;;;;;;4.20;1.83;;;17.20;54.00;;;;;;4967350;28;20035;-65
2023/12/23 01:33:25;;;;;;;3.47;1.83;;;17.20;54.00;;;;;;4968206;28;20064;-64
2023/12/23 01:35:51;;;;;;;2.67;1.20;;;17.10;54.00;;;;;;4968914;28;20037;-63
2023/12/23 01:38:16;;;;;;;2.25;1.30;;;17.10;54.00;;;;;;4967891;28;20106;-64
2023/12/23 01:40:42;;;;;;;3.85;1.48;;;17.10;53.90;;;;;;4968317;28;20445;-64
2023/12/23 01:43:07;;;;;;;3.05;1.75;;;17.10;54.00;;;;;;4967293;28;20031;-64
2023/12/23 01:45:33;;;;;;;2.97;1.25;;;17.10;54.00;;;;;;4968199;28;20037;-64
2023/12/23 01:48:00;;;;;;;3.08;1.70;;;17.10;54.00;;;;;;4966225;28;20524;-64
2023/12/23 01:50:27;;;;;;;3.30;1.48;;;17.10;54.00;;;;;;4968653;28;20042;-65
2023/12/23 01:52:55;;;;;;;3.50;1.40;;;17.10;54.00;;;;;;4967624;28;20055;-64
2023/12/23 01:55:21;;;;;;;4.93;1.58;;;17.10;54.10;;;;;;4967543;28;20037;-64
2023/12/23 01:57:46;;;;;;;2.00;1.10;;;17.10;54.00;;;;;;4967293;28;20574;-64
2023/12/23 02:00:12;;;;;;;2.47;1.35;;;17.10;54.10;;;;;;4966549;28;20030;-64
2023/12/23 02:02:40;;;;;;;3.40;1.42;;;17.10;54.00;;;;;;4967671;28;20035;-64
2023/12/23 02:05:06;;;;;;;2.30;1.40;;;17.10;54.00;;;;;;4966731;28;20031;-58
2023/12/23 02:07:35;;;;;;;3.42;1.02;;;17.10;54.00;;;;;;4967114;28;20050;-64
2023/12/23 02:10:01;;;;;;;3.70;1.05;;;17.10;54.10;;;;;;4966749;28;20030;-66
2023/12/23 02:12:56;;;;;;;2.80;1.23;;;17.10;54.10;;;;;;4963725;28;20086;-64
2023/12/23 02:15:23;;;;;;;2.60;1.30;;;17.10;54.10;;;;;;4960596;28;20646;-55
2023/12/23 02:17:57;;;;;;;2.35;1.23;;;17.00;54.00;;;;;;4966305;28;20047;-65
2023/12/23 02:20:23;;;;;;;5.25;1.48;;;17.10;54.10;;;;;;4960741;28;20077;-65
2023/12/23 02:22:48;;;;;;;1.65;1.00;;;17.00;54.10;;;;;;4965817;28;20071;-63
2023/12/23 02:25:14;;;;;;;2.75;0.93;;;17.10;54.10;;;;;;4967037;28;20035;-63
2023/12/23 02:27:46;;;;;;;2.35;1.25;;;17.10;54.10;;;;;;4967120;28;20031;-66
2023/12/23 02:30:14;;;;;;;2.20;0.88;;;17.00;54.10;;;;;;4966745;28;20383;-63
2023/12/23 02:32:41;;;;;;;3.67;1.05;;;17.00;54.10;;;;;;4966698;28;20034;-64
2023/12/23 02:35:08;;;;;;;2.78;1.17;;;17.00;54.10;;;;;;4965592;28;20367;-64
2023/12/23 02:37:34;;;;;;;2.20;1.00;;;17.00;54.10;;;;;;4966081;28;20034;-64
2023/12/23 02:39:59;;;;;;;1.95;0.90;;;17.00;54.10;;;;;;4965602;28;20037;-64
2023/12/23 02:42:25;;;;;;;1.77;0.85;;;17.00;54.10;;;;;;4966460;28;20034;-63
2023/12/23 02:44:50;;;;;;;1.60;0.93;;;17.00;54.20;;;;;;4966234;28;20058;-64
2023/12/23 02:47:16;;;;;;;1.20;0.77;;;17.00;54.20;;;;;;4965959;28;20086;-64
2023/12/23 02:49:41;;;;;;;2.00;0.82;;;17.00;54.10;;;;;;4966794;28;20139;-64
2023/12/23 02:52:07;;;;;;;3.05;1.20;;;17.00;54.10;;;;;;4965642;28;20031;-64
2023/12/23 02:54:32;;;;;;;3.58;1.10;;;17.00;54.10;;;;;;4966202;28;20733;-63
2023/12/23 02:56:58;;;;;;;1.63;0.70;;;17.00;54.70;;;;;;4960427;28;20058;-64
2023/12/23 02:59:23;;;;;;;2.10;0.73;;;16.90;54.10;;;;;;4966685;28;20026;-64
2023/12/23 03:01:49;;;;;;;1.95;0.80;;;17.00;54.20;;;;;;4961633;28;20089;-65
2023/12/23 03:04:14;;;;;;;1.65;0.95;;;17.00;54.10;;;;;;4961189;28;20038;-65
2023/12/23 03:06:40;;;;;;;2.13;1.02;;;17.00;54.20;;;;;;4961901;28;20035;-65
2023/12/23 03:09:05;;;;;;;1.88;0.80;;;16.90;54.10;;;;;;4961253;28;20034;-66
2023/12/23 03:11:31;;;;;;;0.95;0.68;;;17.00;54.20;;;;;;4961802;28;20039;-64
2023/12/23 03:13:56;;;;;;;0.90;0.60;;;17.00;54.20;;;;;;4964983;28;20798;-65
2023/12/23 03:16:22;;;;;;;2.15;0.98;;;17.00;54.20;;;;;;4965873;28;20502;-64
2023/12/23 03:18:47;;;;;;;2.50;1.10;;;17.00;54.10;;;;;;4965157;28;20080;-65
2023/12/23 03:21:13;;;;;;;2.08;1.00;;;16.90;54.10;;;;;;4969583;28;20035;-64
2023/12/23 03:23:38;;;;;;;1.38;0.88;;;16.90;54.20;;;;;;4965408;28;20087;-64
2023/12/23 03:26:05;;;;;;;1.88;0.70;;;16.90;54.10;;;;;;4965031;28;20043;-61
2023/12/23 03:28:31;;;;;;;1.15;0.70;;;16.90;54.20;;;;;;4976491;28;20039;-64
2023/12/23 03:30:56;;;;;;;1.30;0.60;;;16.90;54.20;;;;;;4965347;28;20057;-64
2023/12/23 03:33:21;;;;;;;1.13;0.63;;;16.90;54.10;;;;;;4963950;28;20043;-64
2023/12/23 03:35:47;;;;;;;1.27;0.70;;;16.90;54.20;;;;;;4965225;28;20031;-65
2023/12/23 03:38:12;;;;;;;1.17;0.75;;;16.90;54.20;;;;;;4965386;28;20575;-65
2023/12/23 03:40:38;;;;;;;1.63;0.70;;;16.90;54.20;;;;;;4964805;28;20034;-64
2023/12/23 03:43:03;;;;;;;0.80;0.60;;;16.90;54.10;;;;;;4961795;28;20031;-65
2023/12/23 03:45:29;;;;;;;1.90;0.77;;;16.90;54.20;;;;;;4966096;28;20038;-64
2023/12/23 03:47:54;;;;;;;2.40;0.90;;;16.90;54.20;;;;;;4965347;28;20034;-65
2023/12/23 03:50:20;;;;;;;0.77;0.50;;;16.80;54.20;;;;;;4966734;28;20057;-64
2023/12/23 03:52:45;;;;;;;1.55;0.60;;;16.80;54.20;;;;;;4966910;28;20023;-64
2023/12/23 03:55:11;;;;;;;1.05;0.68;;;16.90;54.20;;;;;;4966503;28;20506;-65
2023/12/23 03:57:37;;;;;;;2.30;0.85;;;16.90;54.20;;;;;;4966919;28;20035;-65
2023/12/23 04:00:04;;;;;;;1.70;0.80;;;16.80;54.20;;;;;;4964579;28;20041;-65
2023/12/23 04:02:30;;;;;;;1.92;0.82;;;16.90;54.20;;;;;;4962394;28;20137;-64
2023/12/23 04:04:55;;;;;;;1.33;0.60;;;16.80;54.20;;;;;;4965419;28;20117;-64
2023/12/23 04:07:21;;;;;;;2.30;0.73;;;16.80;54.10;;;;;;4966148;28;20035;-65
2023/12/23 04:09:46;;;;;;;1.42;0.90;;;16.80;54.20;;;;;;4968082;28;20034;-64
2023/12/23 04:12:12;;;;;;;0.70;0.38;;;16.80;54.20;;;;;;4966361;28;20034;-64
2023/12/23 04:14:40;;;;;;;0.95;0.70;;;16.80;54.20;;;;;;4968034;28;20341;-64
2023/12/23 04:17:05;;;;;;;0.77;0.40;;;16.80;54.20;;;;;;4967299;28;20046;-62
2023/12/23 04:19:31;;;;;;;0.60;0.32;;;16.80;54.20;;;;;;4967887;28;20035;-64
2023/12/23 04:21:56;;;;;;;2.95;0.65;;;16.80;54.30;;;;;;4968315;28;20034;-64
2023/12/23 04:24:22;;;;;;;1.10;0.60;;;16.80;54.90;;;;;;4968360;28;20031;-64
2023/12/23 04:26:47;;;;;;;0.88;0.35;;;16.80;54.20;;;;;;4969933;28;20030;-64
2023/12/23 04:29:13;;;;;;;1.00;0.43;;;16.80;54.20;;;;;;4970117;28;20126;-64
2023/12/23 04:31:40;;;;;;;1.33;0.60;;;16.80;54.20;;;;;;4969826;28;20081;-64
2023/12/23 04:34:06;;;;;;;1.10;0.50;;;16.80;54.20;;;;;;4970311;28;20043;-65
2023/12/23 04:36:31;;;;;;;1.25;0.60;;;16.80;54.20;;;;;;4970469;28;20035;-64
2023/12/23 04:38:57;;;;;;;1.70;0.60;;;16.70;54.10;;;;;;4973195;28;20039;-53
2023/12/23 04:41:22;;;;;;;1.13;0.40;;;16.80;54.20;;;;;;4971524;28;20037;-55
2023/12/23 04:43:48;;;;;;;1.55;0.60;;;16.70;54.10;;;;;;4973044;28;20031;-63
2023/12/23 04:46:13;;;;;;;0.82;0.52;;;16.80;54.30;;;;;;4973647;28;20111;-64
2023/12/23 04:48:39;;;;;;;1.63;0.60;;;16.70;54.10;;;;;;4972035;28;20045;-64
2023/12/23 04:51:04;;;;;;;1.60;0.50;;;16.70;54.20;;;;;;4972046;28;20037;-58
2023/12/23 04:53:30;;;;;;;0.65;0.40;;;16.70;54.10;;;;;;4967537;28;20375;-65
2023/12/23 04:55:55;;;;;;;1.40;0.40;;;16.80;54.20;;;;;;4970127;28;20054;-64
2023/12/23 04:58:21;;;;;;;1.20;0.73;;;16.70;54.10;;;;;;4967895;28;20046;-64
2023/12/23 05:00:47;;;;;;;1.02;0.60;;;16.80;54.20;;;;;;4968450;28;20027;-65
2023/12/23 05:03:12;;;;;;;1.08;0.60;;;16.80;54.20;;;;;;4968094;28;20054;-64
2023/12/23 05:05:40;;;;;;;1.90;0.52;;;16.70;54.20;;;;;;4969311;28;20446;-59
2023/12/23 05:08:06;;;;;;;0.98;0.52;;;16.70;54.10;;;;;;4968784;28;20027;-65
2023/12/23 05:10:31;;;;;;;0.45;0.30;;;16.70;54.10;;;;;;4969298;28;20053;-64
2023/12/23 05:12:57;;;;;;;1.33;0.43;;;16.70;54.10;;;;;;4967536;28;20058;-65
2023/12/23 05:15:23;;;;;;;1.27;0.60;;;16.70;54.10;;;;;;4969423;28;20916;-64
2023/12/23 05:17:49;;;;;;;1.27;0.50;;;16.70;54.10;;;;;;4967270;28;20371;-64
2023/12/23 05:20:14;;;;;;;0.95;0.30;;;16.70;54.20;;;;;;4970276;28;20023;-65
2023/12/23 05:22:40;;;;;;;1.48;0.55;;;16.70;54.10;;;;;;4968955;28;20034;-64
2023/12/23 05:25:06;;;;;;;1.55;0.60;;;16.70;54.10;;;;;;4969947;28;20038;-64
2023/12/23 05:27:31;;;;;;;1.17;0.55;;;16.70;54.10;;;;;;4969801;28;20030;-64
2023/12/23 05:29:57;;;;;;;0.75;0.40;;;16.70;54.10;;;;;;4970138;28;20039;-64
2023/12/23 05:32:23;;;;;;;0.70;0.40;;;16.60;54.00;;;;;;4968887;28;20070;-66
2023/12/23 05:34:48;;;;;;;1.10;0.40;;;16.70;54.10;;;;;;4967362;28;20092;-65
2023/12/23 05:37:14;;;;;;;1.30;0.50;;;16.70;54.10;;;;;;4968893;28;20034;-63
2023/12/23 05:39:40;;;;;;;0.80;0.30;;;16.70;54.10;;;;;;4969116;28;20448;-64
2023/12/23 05:42:06;;;;;;;0.30;0.20;;;16.70;54.10;;;;;;4968543;28;24884;-64
2023/12/23 05:44:31;;;;;;;0.73;0.40;;;16.60;54.10;;;;;;4967221;28;20130;-64
2023/12/23 05:46:57;;;;;;;1.55;0.50;;;16.60;54.10;;;;;;4968914;28;20041;-65
2023/12/23 05:49:22;;;;;;;1.05;0.60;;;16.70;54.10;;;;;;4965302;28;20049;-64
2023/12/23 05:51:48;;;;;;;0.57;0.30;;;16.70;54.10;;;;;;4966589;28;20038;-64
2023/12/23 05:54:13;;;;;;;0.55;0.40;;;16.60;54.10;;;;;;4967790;28;20035;-65
2023/12/23 05:56:39;;;;;;;1.00;0.50;;;16.60;54.10;;;;;;4966519;28;20533;-63
2023/12/23 05:59:04;;;;;;;2.28;0.50;;;16.60;54.10;;;;;;4966283;28;20051;-54
2023/12/23 06:01:30;;;;;;;0.70;0.38;;;16.60;54.10;;;;;;4966556;28;20118;-64
2023/12/23 06:03:55;;;;;;;0.60;0.28;;;16.60;54.10;;;;;;4967377;28;20027;-66
2023/12/23 06:06:21;;;;;;;0.88;0.40;;;16.60;54.10;;;;;;4966677;28;20042;-64
2023/12/23 06:08:47;;;;;;;1.80;0.40;;;16.60;54.00;;;;;;4967669;28;20052;-64
2023/12/23 06:11:13;;;;;;;0.52;0.50;;;16.60;54.10;;;;;;4967045;28;20446;-66
2023/12/23 06:13:38;;;;;;;0.95;0.30;;;16.60;54.10;;;;;;4967380;28;20113;-64
2023/12/23 06:16:07;;;;;;;0.93;0.55;;;16.60;54.10;;;;;;4967904;28;20073;-65
2023/12/23 06:18:33;;;;;;;0.32;0.30;;;16.60;54.10;;;;;;4966878;28;20034;-63
2023/12/23 06:20:59;;;;;;;0.52;0.40;;;16.60;54.10;;;;;;4966079;28;20498;-64
2023/12/23 06:23:24;;;;;;;0.85;0.38;;;16.60;54.10;;;;;;4967390;28;20038;-64
2023/12/23 06:25:50;;;;;;;0.80;0.60;;;16.60;54.10;;;;;;4966406;28;20039;-67
2023/12/23 06:28:15;;;;;;;0.82;0.32;;;16.60;54.10;;;;;;4965394;28;20071;-63
2023/12/23 06:30:42;;;;;;;0.60;0.32;;;16.60;54.10;;;;;;4968043;28;20069;-65
2023/12/23 06:33:07;;;;;;;1.02;0.40;;;16.60;54.10;;;;;;4967386;28;20031;-66
2023/12/23 06:35:33;;;;;;;0.73;0.40;;;16.60;54.10;;;;;;4967401;28;20030;-63
2023/12/23 06:37:58;;;;;;;0.85;0.50;;;16.60;54.10;;;;;;4967208;28;20063;-65
2023/12/23 06:40:24;;;;;;;0.90;0.40;;;16.60;54.10;;;;;;4965919;28;20054;-64
2023/12/23 06:42:49;;;;;;;0.88;0.40;;;16.60;54.10;;;;;;4966064;28;20031;-61
2023/12/23 06:45:15;;;;;;;1.40;0.57;;;16.60;54.10;;;;;;4966154;28;20101;-64
2023/12/23 06:47:41;;;;;;;0.40;0.32;;;16.60;54.20;;;;;;4967550;28;20050;-65
2023/12/23 06:50:06;;;;;;;0.45;0.30;;;16.50;54.10;;;;;;4971030;28;20039;-67
2023/12/23 06:52:32;;;;;;;1.30;0.45;;;16.60;54.10;;;;;;4970074;28;20027;-64
2023/12/23 06:54:57;;;;;;;0.95;0.50;;;16.60;54.10;;;;;;4972853;28;20106;-63
2023/12/23 06:57:23;;;;;;;1.33;0.60;;;16.50;54.10;;;;;;4970302;28;20084;-63
2023/12/23 06:59:48;;;;;;;1.00;0.57;;;16.50;54.10;;;;;;4969906;28;20038;-64
2023/12/23 07:02:15;;;;;;;0.70;0.25;;;16.50;54.20;;;;;;4969541;28;20062;-64
2023/12/23 07:04:40;;;;;;;0.60;0.30;;;16.50;54.20;;;;;;4971350;28;20034;-66
2023/12/23 07:07:06;;;;;;;0.68;0.22;;;16.50;54.10;;;;;;4969008;28;20031;-57
2023/12/23 07:09:32;;;;;;;1.70;0.40;;;16.50;54.10;;;;;;4970956;28;20031;-62
2023/12/23 07:11:57;;;;;;;0.80;0.40;;;16.50;54.10;;;;;;4970670;28;20050;-64
2023/12/23 07:14:23;;;;;;;1.45;0.52;;;16.50;54.10;;;;;;4970649;28;20035;-64
2023/12/23 07:16:49;;;;;;;0.63;0.40;;;16.50;54.20;;;;;;4969232;28;20050;-64
2023/12/23 07:19:15;;;;;;;4.85;0.35;;;16.50;54.20;;;;;;4969395;28;20058;-64
2023/12/23 07:21:40;;;;;;;0.50;0.20;;;16.50;54.20;;;;;;4969232;28;20035;-64
2023/12/23 07:24:06;;;;;;;0.40;0.30;;;16.50;54.10;;;;;;4971707;28;20711;-66
2023/12/23 07:26:34;;;;;;;0.85;0.50;;;16.50;54.00;;;;;;4968756;28;20121;-64
2023/12/23 07:29:03;;;;;;;1.10;0.40;;;16.40;54.10;;;;;;4968985;28;20499;-63
2023/12/23 07:31:32;;;;;;;1.08;0.47;;;16.40;54.10;;;;;;4970363;28;20065;-64
2023/12/23 07:34:02;;;;;;;1.30;0.40;;;16.50;54.10;;;;;;4968086;28;20050;-64
2023/12/23 07:36:28;;;;;;;0.60;0.20;;;16.50;54.20;;;;;;4970484;28;20038;-66
2023/12/23 07:38:53;;;;;;;2.03;0.73;;;16.50;54.20;;;;;;4970105;28;20031;-66
2023/12/23 07:41:19;;;;;;;1.05;0.40;;;16.40;54.00;;;;;;4970193;28;20034;-59
2023/12/23 07:43:44;;;;;;;1.17;0.65;;;16.40;54.90;;;;;;4970466;28;20113;-63
2023/12/23 07:46:11;;;;;;;0.93;0.50;;;16.40;54.20;;;;;;4969526;28;20516;-66
2023/12/23 07:48:37;;;;;;;1.35;0.30;;;16.40;54.10;;;;;;4962991;28;20043;-65
2023/12/23 07:51:05;;;;;;;1.00;0.30;;;16.40;54.20;;;;;;4971268;28;20038;-65
2023/12/23 07:53:31;;;;;;;0.95;0.43;;;16.40;54.20;;;;;;4968252;28;20031;-64
2023/12/23 07:55:56;;;;;;;0.80;0.50;;;16.40;54.20;;;;;;4970131;28;20055;-65
2023/12/23 07:58:22;;;;;;;0.70;0.35;;;16.40;54.10;;;;;;4967638;28;20682;-63
2023/12/23 08:00:47;;;;;;;3.70;0.60;;;16.40;54.20;;;;;;4968606;28;20026;-65
2023/12/23 08:03:13;;;;;;;0.95;0.60;;;16.40;54.30;;;;;;4969489;28;20030;-64
2023/12/23 08:05:38;;;;;;;1.63;0.90;;;16.40;54.30;;;;;;4970205;28;20027;-62
2023/12/23 08:08:04;;;;;;;0.70;0.45;;;16.40;54.20;;;;;;4968874;28;20034;-57
2023/12/23 08:10:30;;;;;;;0.93;0.45;;;16.40;54.10;;;;;;4969659;28;20639;-60
2023/12/23 08:12:55;;;;;;;1.20;0.60;;;16.40;54.20;;;;;;4967782;28;20034;-63
2023/12/23 08:15:21;;;;;;;1.77;0.82;;;16.40;54.20;;;;;;4969489;28;20041;-69
2023/12/23 08:17:46;;;;;;;1.42;1.10;;;16.40;54.10;;;;;;4968209;28;20026;-68
2023/12/23 08:20:12;;;;;;;3.28;1.10;;;16.40;54.20;;;;;;4970706;28;20122;-65
2023/12/23 08:22:37;;;;;;;1.73;0.90;;;16.40;54.90;;;;;;4967658;28;20050;-65
2023/12/23 08:25:03;;;;;;;1.10;0.80;;;16.40;54.30;;;;;;4969790;28;20687;-67
2023/12/23 08:27:28;;;;;;;1.70;1.02;;;16.40;54.20;;;;;;4971198;28;20145;-66
2023/12/23 08:29:54;;;;;;;2.45;0.77;;;16.40;54.20;;;;;;4968271;28;20094;-68
2023/12/23 08:32:19;;;;;;;0.85;0.65;;;16.40;54.10;;;;;;4968381;28;20033;-68
2023/12/23 08:34:46;;;;;;;1.40;0.68;;;16.40;54.20;;;;;;4970129;28;20529;-65
2023/12/23 08:37:11;;;;;;;0.98;0.85;;;16.30;54.20;;;;;;4970026;28;20050;-67
2023/12/23 08:39:37;;;;;;;2.08;1.10;;;16.30;54.20;;;;;;4967777;28;20109;-66
2023/12/23 08:42:03;;;;;;;1.13;0.80;;;16.30;54.10;;;;;;4967112;28;20517;-65
2023/12/23 08:44:28;;;;;;;1.73;1.10;;;16.30;54.70;;;;;;4967615;28;20041;-66
2023/12/23 08:46:53;;;;;;;2.38;0.80;;;16.30;54.20;;;;;;4967262;28;20102;-65
2023/12/23 08:49:19;;;;;;;1.90;1.05;;;16.30;54.20;;;;;;4968008;28;20047;-66
2023/12/23 08:51:44;;;;;;;2.15;1.08;;;16.30;54.20;;;;;;4968165;28;20458;-67
2023/12/23 08:54:10;;;;;;;2.88;1.20;;;16.30;54.10;;;;;;4969891;28;20031;-66
2023/12/23 08:56:35;;;;;;;1.25;0.75;;;16.30;54.10;;;;;;4968830;28;20027;-66
2023/12/23 08:59:01;;;;;;;1.00;0.73;;;16.30;54.20;;;;;;4966998;28;20041;-63
2023/12/23 09:01:26;;;;;;;1.38;1.02;;;16.30;54.20;;;;;;4969114;28;20087;-67
2023/12/23 09:03:52;;;;;;;1.55;0.90;;;16.30;54.10;;;;;;4967236;28;20041;-64
2023/12/23 09:06:17;;;;;;;1.42;0.77;;;16.30;54.20;;;;;;4968829;28;20401;-65
2023/12/23 09:08:43;;;;;;;2.20;1.15;;;16.30;54.20;;;;;;4966383;28;21739;-63
2023/12/23 09:11:08;;;;;;;1.67;0.90;;;16.30;54.10;;;;;;4965758;28;20035;-66
2023/12/23 09:13:34;;;;;;;3.45;1.35;;;16.30;54.10;;;;;;4966413;28;20057;-66
2023/12/23 09:16:05;;;;;;;1.90;1.02;;;16.30;54.20;;;;;;4966951;28;20025;-63
2023/12/23 09:18:31;;;;;;;1.40;1.00;;;16.30;54.10;;;;;;4968341;28;20402;-65
2023/12/23 09:20:57;;;;;;;1.58;1.10;;;16.30;54.10;;;;;;4967018;28;20034;-66
2023/12/23 09:23:22;;;;;;;2.63;1.00;;;16.30;54.20;;;;;;4967426;28;20031;-65
2023/12/23 09:25:48;;;;;;;2.30;1.05;;;16.30;54.00;;;;;;4968965;28;20030;-65
2023/12/23 09:28:17;;;;;;;1.52;1.02;;;16.30;54.10;;;;;;4967111;28;20452;-63
2023/12/23 09:30:42;;;;;;;1.83;1.30;;;16.30;54.10;;;;;;4968340;28;20086;-66
2023/12/23 09:33:08;;;;;;;2.40;1.23;;;16.30;54.00;;;;;;4967477;28;20035;-64
2023/12/23 09:35:33;;;;;;;2.15;1.30;;;16.30;54.10;;;;;;4965629;28;20039;-64
2023/12/23 09:37:59;;;;;;;4.50;1.83;;;16.20;54.10;;;;;;4960763;28;20034;-66
2023/12/23 09:40:24;;;;;;;2.17;1.33;;;16.30;54.10;;;;;;4961752;28;20449;-64
2023/12/23 09:42:50;;;;;;;1.80;1.13;;;16.20;54.10;;;;;;4962473;28;20031;-65
2023/12/23 09:45:18;;;;;;;2.05;1.38;;;16.30;54.10;;;;;;4963631;28;20046;-66
2023/12/23 09:47:44;;;;;;;2.83;1.50;;;16.30;54.20;;;;;;4965241;28;20041;-66
2023/12/23 09:50:10;;;;;;;2.22;1.20;;;16.30;54.10;;;;;;4965131;28;20039;-65
2023/12/23 09:52:35;;;;;;;3.08;1.88;;;16.30;54.20;;;;;;4961415;28;20113;-64
2023/12/23 09:55:03;;;;;;;4.13;1.98;;;16.30;54.50;;;;;;4962959;28;20805;-65
2023/12/23 09:57:30;;;;;;;4.15;1.98;;;16.30;54.40;;;;;;4962674;28;20068;-65
2023/12/23 09:59:57;;;;;;;3.10;1.90;;;16.30;54.30;;;;;;4963241;28;20042;-65
2023/12/23 10:02:22;;;;;;;3.45;2.30;;;16.30;54.20;;;;;;4967067;28;20051;-65
2023/12/23 10:04:47;;;;;;;4.43;2.00;;;16.20;54.20;;;;;;4966528;28;20035;-65
2023/12/23 10:07:15;;;;;;;5.07;2.03;;;16.30;54.20;;;;;;4962952;28;20085;-65
2023/12/23 10:09:40;;;;;;;4.22;2.20;;;16.20;54.30;;;;;;4957310;28;20284;-64
2023/12/23 10:12:06;;;;;;;3.03;2.15;;;16.20;54.20;;;;;;4967252;28;20061;-65
2023/12/23 10:14:32;;;;;;;4.85;2.15;;;16.20;54.20;;;;;;4967860;28;20047;-64
2023/12/23 10:16:57;;;;;;;5.88;2.83;;;16.20;54.20;;;;;;4965925;28;20046;-61
2023/12/23 10:19:24;;;;;;;3.65;2.35;;;16.20;54.10;;;;;;4968735;28;20499;-65
2023/12/23 10:21:50;;;;;;;4.50;2.58;;;16.20;54.20;;;;;;4967275;28;20038;-64
2023/12/23 10:24:15;;;;;;;3.10;2.40;;;16.20;54.10;;;;;;4971046;28;20053;-64
2023/12/23 10:26:42;;;;;;;6.20;2.63;;;16.20;54.20;;;;;;4966940;28;20035;-65
2023/12/23 10:29:09;;;;;;;4.65;2.60;;;16.20;54.10;;;;;;4967520;28;20450;-65
2023/12/23 10:31:36;;;;;;;4.50;2.78;;;16.20;54.20;;;;;;4966698;28;20035;-63
2023/12/23 10:34:11;;;;;;;3.85;2.35;;;16.20;54.10;;;;;;4963832;28;20846;-65
2023/12/23 10:36:40;;;;;;;5.68;2.58;;;16.20;54.20;;;;;;4966240;28;20077;-63
2023/12/23 10:39:15;;;;;;;5.78;3.15;;;16.20;54.30;;;;;;4969393;28;20173;-65
2023/12/23 10:41:50;;;;;;;7.60;3.72;;;16.20;54.40;;;;;;4964209;28;20405;-64
2023/12/23 10:44:17;;;;;;;7.25;3.33;;;16.20;54.40;;;;;;4967757;28;20027;-65
2023/12/23 10:46:43;;;;;;;7.40;3.22;;;16.20;54.40;;;;;;4963358;28;20030;-66
2023/12/23 10:49:10;;;;;;;7.72;3.45;;;16.20;54.30;;;;;;4967186;28;20084;-63
2023/12/23 10:51:37;;;;;;;6.47;3.22;;;16.20;54.50;;;;;;4967869;28;20046;-64
2023/12/23 10:54:03;;;;;;;7.72;4.35;;;16.20;54.40;;;;;;4965586;28;20039;-64
2023/12/23 10:56:29;;;;;;;7.57;4.13;;;16.20;54.50;;;;;;4967622;28;20023;-62
2023/12/23 10:58:56;;;;;;;8.18;3.90;;;16.20;54.60;;;;;;4966266;28;20034;-63
2023/12/23 11:01:24;;;;;;;8.25;4.30;;;16.20;54.50;;;;;;4967863;28;20038;-62
2023/12/23 11:03:54;;;;;;;7.32;3.80;;;16.20;54.50;;;;;;4967886;28;20031;-62
2023/12/23 11:06:21;;;;;;;7.20;3.85;;;16.20;54.60;;;;;;4968110;28;20486;-64
2023/12/23 11:08:48;;;;;;;7.80;3.80;;;16.20;54.80;;;;;;4968562;28;20122;-62
2023/12/23 11:11:15;;;;;;;8.32;3.85;;;16.20;54.60;;;;;;4966964;28;20494;-64
2023/12/23 11:13:41;;;;;;;12.43;5.35;;;16.20;54.70;;;;;;4976980;28;20094;-62
2023/12/23 11:16:10;;;;;;;15.13;5.72;;;16.20;55.20;;;;;;4968106;28;20031;-65
2023/12/23 11:18:42;;;;;;;13.00;5.20;;;16.30;55.80;;;;;;4967890;28;20019;-65
2023/12/23 11:21:16;;;;;;;14.02;5.18;;;16.30;55.30;;;;;;4966428;28;20371;-61
2023/12/23 11:23:41;;;;;;;12.85;5.80;;;16.30;55.00;;;;;;4967999;28;20490;-64
2023/12/23 11:26:42;;;;;;;14.25;5.80;;;16.30;55.00;;;;;;4967168;28;20047;-65
2023/12/23 11:29:12;;;;;;;19.25;6.00;;;16.30;56.10;;;;;;4964210;28;20042;-56
2023/12/23 11:31:38;;;;;;;15.88;6.40;;;16.40;56.40;;;;;;4965611;28;20041;-64
2023/12/23 11:34:17;;;;;;;14.05;5.53;;;16.40;55.60;;;;;;4969978;28;20031;-64
2023/12/23 11:36:45;;;;;;;11.27;5.40;;;16.40;55.40;;;;;;4970977;28;20371;-68
2023/12/23 11:39:12;;;;;;;12.27;5.28;;;16.30;55.20;;;;;;4970611;28;20542;-64
2023/12/23 11:41:40;;;;;;;12.85;5.82;;;16.30;55.10;;;;;;4965805;28;20066;-65
2023/12/23 11:44:06;;;;;;;11.32;5.43;;;16.20;55.00;;;;;;4964733;28;20524;-66
2023/12/23 11:46:34;;;;;;;10.95;5.70;;;16.20;54.90;;;;;;4964005;28;20046;-65
2023/12/23 11:49:00;;;;;;;14.63;5.78;;;16.20;55.00;;;;;;4966400;28;20129;-66
2023/12/23 11:51:26;;;;;;;12.20;4.90;;;16.20;54.90;;;;;;4966081;28;20167;-65
2023/12/23 11:53:53;;;;;;;11.55;5.07;;;16.30;55.00;;;;;;4931420;28;20112;-65
2023/12/23 11:56:19;;;;;;;9.85;5.60;;;16.20;54.90;;;;;;4970131;28;20034;-65
2023/12/23 11:58:45;;;;;;;11.60;5.40;;;16.20;54.80;;;;;;4965575;28;20066;-67
2023/12/23 12:01:10;;;;;;;9.90;4.57;;;16.20;54.80;;;;;;4964929;28;20065;-65
2023/12/23 12:03:36;;;;;;;12.48;5.30;;;16.20;54.80;;;;;;4964518;28;20405;-66
2023/12/23 12:06:04;;;;;;;11.05;4.95;;;16.20;54.80;;;;;;4964905;28;20034;-66
2023/12/23 12:08:30;;;;;;;12.50;5.03;;;16.20;54.80;;;;;;4966030;28;20084;-66
2023/12/23 12:10:56;;;;;;;12.95;5.25;;;16.20;58.40;;;;;;4966084;28;20102;-64
2023/12/23 12:13:28;;;;;;;11.50;5.53;;;16.50;59.30;;;;;;4968651;28;20042;-64
2023/12/23 12:15:54;;;;;;;11.82;4.93;;;16.80;58.60;;;;;;4967346;28;20054;-64
2023/12/23 12:18:19;;;;;;;18.15;5.57;;;17.00;57.90;;;;;;4966207;28;20070;-66
2023/12/23 12:20:45;;;;;;;12.32;4.88;;;17.00;58.10;;;;;;4966743;28;20034;-66
2023/12/23 12:23:12;;;;;;;18.67;5.50;;;17.10;58.60;;;;;;4967956;28;20019;-64
2023/12/23 12:25:38;;;;;;;15.88;5.32;;;17.10;59.30;;;;;;4968550;28;21759;-57
2023/12/23 12:28:05;;;;;;;12.77;5.35;;;17.20;58.80;;;;;;4967549;28;20054;-61
2023/12/23 12:30:30;;;;;;;12.93;6.25;;;17.20;58.70;;;;;;4967321;28;20110;-64
2023/12/23 12:32:58;;;;;;;14.00;6.55;;;17.20;59.30;;;;;;4969009;28;20106;-64
2023/12/23 12:35:23;;;;;;;12.38;6.70;;;17.30;59.60;;;;;;4972699;28;20066;-62
2023/12/23 12:37:49;;;;;;;13.32;5.47;;;17.30;59.30;;;;;;4968960;28;20129;-67
2023/12/23 12:40:16;;;;;;;13.65;5.32;;;17.30;59.10;;;;;;4971478;28;20035;-60